sensor_id;sensor_type;location;lat;lon;timestamp;pressure;altitude;pressure_sealevel;temperature;humidity
58975;BME280;44751;52.236;5.178;2022-10-22T10:54:50;101136.00;;;16.32;100.00
58975;BME280;44751;52.236;5.178;2022-10-22T10:57:47;101148.38;;;16.21;100.00
58975;BME280;44751;52.236;5.178;2022-10-22T11:00:17;101139.38;;;16.34;100.00
58975;BME280;44751;52.236;5.178;2022-10-22T11:03:30;101138.53;;;16.27;100.00
58975;BME280;44751;52.236;5.178;2022-10-22T11:06:11;101142.09;;;16.21;100.00
58975;BME280;44751;52.236;5.178;2022-10-22T11:08:44;101140.44;;;16.13;100.00
58975;BME280;44751;52.236;5.178;2022-10-22T11:11:21;101150.47;;;15.99;100.00
58975;BME280;44751;52.236;5.178;2022-10-22T11:13:48;101146.50;;;16.02;100.00
58975;BME280;44751;52.236;5.178;2022-10-22T11:16:39;101145.44;;;16.09;100.00
58975;BME280;44751;52.236;5.178;2022-10-22T11:19:17;101148.41;;;16.15;100.00
58975;BME280;44751;52.236;5.178;2022-10-22T11:21:55;101160.09;;;16.08;100.00
58975;BME280;44751;52.236;5.178;2022-10-22T11:24:29;101161.78;;;16.09;100.00
58975;BME280;44751;52.236;5.178;2022-10-22T11:29:56;101155.28;;;16.24;100.00
58975;BME280;44751;52.236;5.178;2022-10-22T11:32:26;101161.78;;;16.23;100.00
58975;BME280;44751;52.236;5.178;2022-10-22T11:34:58;101156.97;;;16.38;100.00
58975;BME280;44751;52.236;5.178;2022-10-22T11:37:30;101150.44;;;16.53;100.00
58975;BME280;44751;52.236;5.178;2022-10-22T11:40:20;101159.03;;;16.50;100.00
58975;BME280;44751;52.236;5.178;2022-10-22T11:42:51;101167.22;;;16.36;100.00
58975;BME280;44751;52.236;5.178;2022-10-22T11:50:57;101168.47;;;16.00;100.00
58975;BME280;44751;52.236;5.178;2022-10-22T11:55:56;101169.03;;;15.82;100.00
58975;BME280;44751;52.236;5.178;2022-10-22T12:03:40;101168.22;;;15.88;100.00
58975;BME280;44751;52.236;5.178;2022-10-22T12:17:10;101177.19;;;15.82;100.00
58975;BME280;44751;52.236;5.178;2022-10-22T12:20:04;101182.25;;;15.85;100.00
58975;BME280;44751;52.236;5.178;2022-10-22T12:22:34;101178.94;;;15.96;100.00
58975;BME280;44751;52.236;5.178;2022-10-22T12:25:11;101181.47;;;15.98;100.00
58975;BME280;44751;52.236;5.178;2022-10-22T12:27:41;101191.25;;;15.92;100.00
58975;BME280;44751;52.236;5.178;2022-10-22T12:32:57;101182.06;;;16.00;100.00
58975;BME280;44751;52.236;5.178;2022-10-22T12:35:26;101187.75;;;16.25;100.00
58975;BME280;44751;52.236;5.178;2022-10-22T12:37:57;101197.38;;;16.28;100.00
58975;BME280;44751;52.236;5.178;2022-10-22T12:40:27;101201.16;;;16.34;100.00
58975;BME280;44751;52.236;5.178;2022-10-22T12:42:56;101187.53;;;16.34;100.00
58975;BME280;44751;52.236;5.178;2022-10-22T12:45:30;101199.47;;;16.46;100.00
58975;BME280;44751;52.236;5.178;2022-10-22T12:48:04;101190.91;;;16.49;100.00
58975;BME280;44751;52.236;5.178;2022-10-22T12:50:34;101193.81;;;16.48;100.00
58975;BME280;44751;52.236;5.178;2022-10-22T12:55:39;101183.13;;;16.53;100.00
58975;BME280;44751;52.236;5.178;2022-10-22T12:58:06;101184.81;;;16.41;100.00
58975;BME280;44751;52.236;5.178;2022-10-22T13:00:33;101196.75;;;16.39;100.00
58975;BME280;44751;52.236;5.178;2022-10-22T13:03:04;101194.22;;;16.51;100.00
58975;BME280;44751;52.236;5.178;2022-10-22T13:05:32;101178.31;;;16.55;100.00
58975;BME280;44751;52.236;5.178;2022-10-22T13:08:15;101185.84;;;16.60;100.00
58975;BME280;44751;52.236;5.178;2022-10-22T13:10:50;101188.34;;;16.61;100.00
58975;BME280;44751;52.236;5.178;2022-10-22T13:13:31;101183.75;;;16.55;100.00
58975;BME280;44751;52.236;5.178;2022-10-22T13:16:22;101190.47;;;16.59;100.00
58975;BME280;44751;52.236;5.178;2022-10-22T13:18:51;101190.25;;;16.54;100.00
58975;BME280;44751;52.236;5.178;2022-10-22T13:23:55;101191.28;;;16.53;100.00
58975;BME280;44751;52.236;5.178;2022-10-22T13:26:25;101185.44;;;16.56;100.00
58975;BME280;44751;52.236;5.178;2022-10-22T13:28:56;101196.94;;;16.51;100.00
58975;BME280;44751;52.236;5.178;2022-10-22T13:31:30;101196.53;;;16.48;100.00
58975;BME280;44751;52.236;5.178;2022-10-22T13:34:06;101194.22;;;16.58;100.00
58975;BME280;44751;52.236;5.178;2022-10-22T13:36:38;101192.16;;;16.54;100.00
58975;BME280;44751;52.236;5.178;2022-10-22T13:39:05;101191.50;;;16.65;100.00
58975;BME280;44751;52.236;5.178;2022-10-22T13:41:38;101187.28;;;16.62;100.00
58975;BME280;44751;52.236;5.178;2022-10-22T13:44:05;101190.25;;;16.61;100.00
58975;BME280;44751;52.236;5.178;2022-10-22T13:46:31;101192.94;;;16.74;100.00
58975;BME280;44751;52.236;5.178;2022-10-22T13:49:04;101191.66;;;16.84;100.00
58975;BME280;44751;52.236;5.178;2022-10-22T13:51:32;101187.47;;;16.81;100.00
58975;BME280;44751;52.236;5.178;2022-10-22T13:54:00;101198.41;;;16.74;100.00
58975;BME280;44751;52.236;5.178;2022-10-22T13:56:27;101201.53;;;16.71;100.00
58975;BME280;44751;52.236;5.178;2022-10-22T13:58:56;101205.94;;;16.79;100.00
58975;BME280;44751;52.236;5.178;2022-10-22T14:01:25;101191.25;;;16.80;100.00
58975;BME280;44751;52.236;5.178;2022-10-22T14:03:57;101195.06;;;16.79;100.00
58975;BME280;44751;52.236;5.178;2022-10-22T14:06:29;101201.31;;;16.80;100.00
58975;BME280;44751;52.236;5.178;2022-10-22T14:09:06;101198.56;;;16.86;100.00
58975;BME280;44751;52.236;5.178;2022-10-22T14:11:36;101201.53;;;16.71;100.00
58975;BME280;44751;52.236;5.178;2022-10-22T14:14:10;101202.81;;;16.69;100.00
58975;BME280;44751;52.236;5.178;2022-10-22T14:16:41;101199.88;;;16.63;100.00
58975;BME280;44751;52.236;5.178;2022-10-22T14:19:13;101204.06;;;16.66;100.00
58975;BME280;44751;52.236;5.178;2022-10-22T14:21:40;101205.78;;;16.47;100.00
58975;BME280;44751;52.236;5.178;2022-10-22T14:24:10;101214.16;;;16.45;100.00
58975;BME280;44751;52.236;5.178;2022-10-22T14:26:36;101211.00;;;16.42;100.00
58975;BME280;44751;52.236;5.178;2022-10-22T14:29:03;101218.53;;;16.39;100.00
58975;BME280;44751;52.236;5.178;2022-10-22T14:31:29;101213.72;;;16.42;100.00
58975;BME280;44751;52.236;5.178;2022-10-22T14:33:58;101223.56;;;16.56;100.00
58975;BME280;44751;52.236;5.178;2022-10-22T14:36:27;101218.94;;;16.70;100.00
58975;BME280;44751;52.236;5.178;2022-10-22T14:38:54;101228.78;;;16.64;100.00
58975;BME280;44751;52.236;5.178;2022-10-22T14:41:22;101225.22;;;16.64;100.00
58975;BME280;44751;52.236;5.178;2022-10-22T14:43:50;101240.94;;;16.75;100.00
58975;BME280;44751;52.236;5.178;2022-10-22T14:46:23;101233.41;;;16.64;100.00
58975;BME280;44751;52.236;5.178;2022-10-22T14:48:50;101240.97;;;16.62;100.00
58975;BME280;44751;52.236;5.178;2022-10-22T14:51:18;101241.16;;;16.54;100.00
58975;BME280;44751;52.236;5.178;2022-10-22T14:53:54;101236.13;;;16.44;100.00
58975;BME280;44751;52.236;5.178;2022-10-22T14:56:21;101234.25;;;16.37;100.00
58975;BME280;44751;52.236;5.178;2022-10-22T14:58:48;101242.00;;;16.27;100.00
58975;BME280;44751;52.236;5.178;2022-10-22T15:01:14;101242.81;;;16.14;100.00
58975;BME280;44751;52.236;5.178;2022-10-22T15:03:40;101245.53;;;16.14;100.00
58975;BME280;44751;52.236;5.178;2022-10-22T15:06:07;101242.81;;;16.14;100.00
58975;BME280;44751;52.236;5.178;2022-10-22T15:08:38;101231.91;;;16.00;100.00
58975;BME280;44751;52.236;5.178;2022-10-22T15:11:06;101237.38;;;16.07;100.00
58975;BME280;44751;52.236;5.178;2022-10-22T15:13:33;101238.81;;;16.03;100.00
58975;BME280;44751;52.236;5.178;2022-10-22T15:16:00;101242.34;;;16.04;100.00
58975;BME280;44751;52.236;5.178;2022-10-22T15:18:26;101249.25;;;15.99;100.00
58975;BME280;44751;52.236;5.178;2022-10-22T15:20:55;101258.06;;;16.02;100.00
58975;BME280;44751;52.236;5.178;2022-10-22T15:23:22;101255.34;;;15.95;100.00
58975;BME280;44751;52.236;5.178;2022-10-22T15:25:48;101242.09;;;15.92;100.00
58975;BME280;44751;52.236;5.178;2022-10-22T15:28:15;101250.06;;;15.93;100.00
58975;BME280;44751;52.236;5.178;2022-10-22T15:30:41;101250.06;;;15.86;100.00
58975;BME280;44751;52.236;5.178;2022-10-22T15:33:08;101250.00;;;15.80;100.00
58975;BME280;44751;52.236;5.178;2022-10-22T15:35:35;101256.69;;;15.77;100.00
58975;BME280;44751;52.236;5.178;2022-10-22T15:38:02;101261.31;;;15.77;100.00
58975;BME280;44751;52.236;5.178;2022-10-22T15:40:30;101262.09;;;15.64;100.00
58975;BME280;44751;52.236;5.178;2022-10-22T15:42:57;101259.97;;;15.59;100.00
58975;BME280;44751;52.236;5.178;2022-10-22T15:45:23;101268.09;;;15.45;100.00
58975;BME280;44751;52.236;5.178;2022-10-22T15:47:52;101264.50;;;15.38;100.00
58975;BME280;44751;52.236;5.178;2022-10-22T15:50:24;101266.78;;;15.34;100.00
58975;BME280;44751;52.236;5.178;2022-10-22T15:52:50;101260.09;;;15.37;100.00
58975;BME280;44751;52.236;5.178;2022-10-22T15:55:18;101256.53;;;15.36;100.00
58975;BME280;44751;52.236;5.178;2022-10-22T15:57:44;101262.16;;;15.35;100.00
58975;BME280;44751;52.236;5.178;2022-10-22T16:00:16;101259.41;;;15.28;100.00
58975;BME280;44751;52.236;5.178;2022-10-22T16:02:43;101259.75;;;15.12;100.00
58975;BME280;44751;52.236;5.178;2022-10-22T16:05:09;101259.69;;;14.98;100.00
58975;BME280;44751;52.236;5.178;2022-10-22T16:07:35;101264.38;;;14.82;100.00
58975;BME280;44751;52.236;5.178;2022-10-22T16:10:05;101263.44;;;14.75;100.00
58975;BME280;44751;52.236;5.178;2022-10-22T16:12:36;101264.78;;;14.57;100.00
58975;BME280;44751;52.236;5.178;2022-10-22T16:15:05;101268.97;;;14.60;100.00
58975;BME280;44751;52.236;5.178;2022-10-22T16:17:32;101270.38;;;14.34;100.00
58975;BME280;44751;52.236;5.178;2022-10-22T16:20:10;101258.91;;;14.32;100.00
58975;BME280;44751;52.236;5.178;2022-10-22T16:22:36;101280.75;;;14.24;100.00
58975;BME280;44751;52.236;5.178;2022-10-22T16:25:03;101273.31;;;14.32;100.00
58975;BME280;44751;52.236;5.178;2022-10-22T16:27:29;101273.75;;;14.14;100.00
58975;BME280;44751;52.236;5.178;2022-10-22T16:29:56;101280.44;;;13.97;100.00
58975;BME280;44751;52.236;5.178;2022-10-22T16:32:32;101284.41;;;13.94;100.00
58975;BME280;44751;52.236;5.178;2022-10-22T16:34:59;101288.44;;;13.83;100.00
58975;BME280;44751;52.236;5.178;2022-10-22T16:37:25;101288.56;;;13.75;100.00
58975;BME280;44751;52.236;5.178;2022-10-22T16:39:51;101292.28;;;13.74;100.00
58975;BME280;44751;52.236;5.178;2022-10-22T16:42:22;101293.69;;;13.69;100.00
58975;BME280;44751;52.236;5.178;2022-10-22T16:44:48;101290.25;;;13.61;100.00
58975;BME280;44751;52.236;5.178;2022-10-22T16:47:17;101294.75;;;13.53;100.00
58975;BME280;44751;52.236;5.178;2022-10-22T16:49:58;101297.53;;;13.45;100.00
58975;BME280;44751;52.236;5.178;2022-10-22T16:52:25;101291.34;;;13.36;100.00
58975;BME280;44751;52.236;5.178;2022-10-22T16:54:51;101303.69;;;13.39;100.00
58975;BME280;44751;52.236;5.178;2022-10-22T16:57:18;101293.78;;;13.31;100.00
58975;BME280;44751;52.236;5.178;2022-10-22T16:59:46;101285.00;;;13.14;100.00
58975;BME280;44751;52.236;5.178;2022-10-22T17:02:12;101291.81;;;13.10;100.00
58975;BME280;44751;52.236;5.178;2022-10-22T17:04:42;101292.84;;;13.09;100.00
58975;BME280;44751;52.236;5.178;2022-10-22T17:07:08;101292.06;;;13.00;100.00
58975;BME280;44751;52.236;5.178;2022-10-22T17:09:35;101296.75;;;13.06;100.00
58975;BME280;44751;52.236;5.178;2022-10-22T17:12:01;101297.22;;;12.95;100.00
58975;BME280;44751;52.236;5.178;2022-10-22T17:14:27;101294.88;;;13.07;100.00
58975;BME280;44751;52.236;5.178;2022-10-22T17:16:54;101305.50;;;12.93;100.00
58975;BME280;44751;52.236;5.178;2022-10-22T17:19:22;101303.94;;;12.99;100.00
58975;BME280;44751;52.236;5.178;2022-10-22T17:21:49;101316.06;;;12.88;100.00
58975;BME280;44751;52.236;5.178;2022-10-22T17:24:18;101319.47;;;12.67;100.00
58975;BME280;44751;52.236;5.178;2022-10-22T17:26:45;101314.94;;;12.59;100.00
58975;BME280;44751;52.236;5.178;2022-10-22T17:29:12;101320.16;;;12.60;100.00
58975;BME280;44751;52.236;5.178;2022-10-22T17:31:39;101327.94;;;12.63;100.00
58975;BME280;44751;52.236;5.178;2022-10-22T17:34:08;101325.44;;;12.77;100.00
58975;BME280;44751;52.236;5.178;2022-10-22T17:36:36;101321.19;;;12.59;100.00
58975;BME280;44751;52.236;5.178;2022-10-22T17:39:05;101329.31;;;12.59;100.00
58975;BME280;44751;52.236;5.178;2022-10-22T17:41:35;101330.75;;;12.47;100.00
58975;BME280;44751;52.236;5.178;2022-10-22T17:44:05;101328.59;;;12.42;100.00
58975;BME280;44751;52.236;5.178;2022-10-22T17:46:32;101332.78;;;12.45;100.00
58975;BME280;44751;52.236;5.178;2022-10-22T17:49:02;101335.56;;;12.36;100.00
58975;BME280;44751;52.236;5.178;2022-10-22T17:51:42;101346.59;;;12.35;100.00
58975;BME280;44751;52.236;5.178;2022-10-22T17:54:09;101332.47;;;12.16;100.00
58975;BME280;44751;52.236;5.178;2022-10-22T17:56:35;101335.84;;;12.18;100.00
58975;BME280;44751;52.236;5.178;2022-10-22T17:59:04;101322.13;;;12.20;100.00
58975;BME280;44751;52.236;5.178;2022-10-22T18:01:32;101327.41;;;12.13;100.00
58975;BME280;44751;52.236;5.178;2022-10-22T18:07:17;101336.56;;;12.12;100.00
58975;BME280;44751;52.236;5.178;2022-10-22T18:09:44;101346.72;;;12.01;100.00
58975;BME280;44751;52.236;5.178;2022-10-22T18:12:11;101339.81;;;11.99;100.00
58975;BME280;44751;52.236;5.178;2022-10-22T18:14:38;101332.53;;;11.99;100.00
58975;BME280;44751;52.236;5.178;2022-10-22T18:17:05;101335.41;;;12.06;100.00
58975;BME280;44751;52.236;5.178;2022-10-22T18:19:31;101340.97;;;12.05;100.00
58975;BME280;44751;52.236;5.178;2022-10-22T18:22:01;101344.19;;;12.00;100.00
58975;BME280;44751;52.236;5.178;2022-10-22T18:24:34;101345.25;;;11.91;100.00
58975;BME280;44751;52.236;5.178;2022-10-22T18:27:03;101346.63;;;11.86;100.00
58975;BME280;44751;52.236;5.178;2022-10-22T18:29:30;101346.94;;;11.92;100.00
58975;BME280;44751;52.236;5.178;2022-10-22T18:32:14;101346.44;;;11.88;100.00
58975;BME280;44751;52.236;5.178;2022-10-22T18:37:35;101347.53;;;11.70;100.00
58975;BME280;44751;52.236;5.178;2022-10-22T18:40:16;101352.22;;;11.77;100.00
58975;BME280;44751;52.236;5.178;2022-10-22T18:42:47;101348.13;;;11.89;100.00
58975;BME280;44751;52.236;5.178;2022-10-22T18:45:24;101350.00;;;11.88;100.00
58975;BME280;44751;52.236;5.178;2022-10-22T18:47:56;101344.44;;;11.82;100.00
58975;BME280;44751;52.236;5.178;2022-10-22T18:50:45;101347.31;;;11.88;100.00
58975;BME280;44751;52.236;5.178;2022-10-22T18:53:43;101346.09;;;11.91;100.00
58975;BME280;44751;52.236;5.178;2022-10-22T18:56:15;101354.75;;;11.78;100.00
58975;BME280;44751;52.236;5.178;2022-10-22T18:58:52;101358.97;;;11.81;100.00
58975;BME280;44751;52.236;5.178;2022-10-22T19:01:27;101356.09;;;11.82;100.00
58975;BME280;44751;52.236;5.178;2022-10-22T19:04:17;101341.25;;;11.78;100.00
58975;BME280;44751;52.236;5.178;2022-10-22T19:07:20;101340.53;;;11.93;100.00
58975;BME280;44751;52.236;5.178;2022-10-22T19:10:11;101337.63;;;11.94;100.00
58975;BME280;44751;52.236;5.178;2022-10-22T19:12:48;101334.66;;;11.81;100.00
58975;BME280;44751;52.236;5.178;2022-10-22T19:15:28;101337.06;;;11.67;100.00
58975;BME280;44751;52.236;5.178;2022-10-22T19:18:31;101325.53;;;11.73;100.00
58975;BME280;44751;52.236;5.178;2022-10-22T19:21:05;101327.06;;;11.76;100.00
58975;BME280;44751;52.236;5.178;2022-10-22T19:23:32;101328.44;;;11.63;100.00
58975;BME280;44751;52.236;5.178;2022-10-22T19:26:21;101328.81;;;11.60;100.00
58975;BME280;44751;52.236;5.178;2022-10-22T19:28:58;101327.78;;;11.70;100.00
58975;BME280;44751;52.236;5.178;2022-10-22T19:31:33;101323.56;;;11.67;100.00
58975;BME280;44751;52.236;5.178;2022-10-22T19:34:29;101321.34;;;11.71;100.00
58975;BME280;44751;52.236;5.178;2022-10-22T19:37:07;101321.88;;;11.58;100.00
58975;BME280;44751;52.236;5.178;2022-10-22T19:39:36;101328.41;;;11.72;100.00
58975;BME280;44751;52.236;5.178;2022-10-22T19:42:02;101335.41;;;11.66;100.00
58975;BME280;44751;52.236;5.178;2022-10-22T19:44:34;101329.47;;;11.62;100.00
58975;BME280;44751;52.236;5.178;2022-10-22T19:47:14;101333.56;;;11.50;100.00
58975;BME280;44751;52.236;5.178;2022-10-22T19:49:48;101332.06;;;11.47;100.00
58975;BME280;44751;52.236;5.178;2022-10-22T19:52:24;101336.41;;;11.57;100.00
58975;BME280;44751;52.236;5.178;2022-10-22T19:55:14;101327.50;;;11.48;100.00
58975;BME280;44751;52.236;5.178;2022-10-22T19:57:53;101325.19;;;11.36;100.00
58975;BME280;44751;52.236;5.178;2022-10-22T20:00:40;101334.13;;;11.29;100.00
58975;BME280;44751;52.236;5.178;2022-10-22T20:03:21;101339.53;;;11.29;100.00
58975;BME280;44751;52.236;5.178;2022-10-22T20:05:56;101338.16;;;11.41;100.00
58975;BME280;44751;52.236;5.178;2022-10-22T20:08:23;101328.53;;;11.39;100.00
58975;BME280;44751;52.236;5.178;2022-10-22T20:10:49;101331.56;;;11.44;100.00
58975;BME280;44751;52.236;5.178;2022-10-22T20:13:36;101332.75;;;11.41;100.00
58975;BME280;44751;52.236;5.178;2022-10-22T20:16:03;101331.03;;;11.48;100.00
58975;BME280;44751;52.236;5.178;2022-10-22T20:18:33;101335.44;;;11.49;100.00
58975;BME280;44751;52.236;5.178;2022-10-22T20:21:06;101335.28;;;11.43;100.00
58975;BME280;44751;52.236;5.178;2022-10-22T20:23:33;101337.50;;;11.31;100.00
58975;BME280;44751;52.236;5.178;2022-10-22T20:26:00;101339.50;;;11.37;100.00
58975;BME280;44751;52.236;5.178;2022-10-22T20:28:31;101338.72;;;11.20;100.00
58975;BME280;44751;52.236;5.178;2022-10-22T20:30:58;101344.94;;;11.29;100.00
58975;BME280;44751;52.236;5.178;2022-10-22T20:33:24;101349.13;;;11.40;100.00
58975;BME280;44751;52.236;5.178;2022-10-22T20:35:58;101346.97;;;11.35;100.00
58975;BME280;44751;52.236;5.178;2022-10-22T20:38:28;101345.09;;;11.35;100.00
58975;BME280;44751;52.236;5.178;2022-10-22T20:41:06;101348.81;;;11.34;100.00
58975;BME280;44751;52.236;5.178;2022-10-22T20:43:33;101342.56;;;11.42;100.00
58975;BME280;44751;52.236;5.178;2022-10-22T20:46:00;101348.63;;;11.36;100.00
58975;BME280;44751;52.236;5.178;2022-10-22T20:48:36;101345.44;;;11.32;100.00
58975;BME280;44751;52.236;5.178;2022-10-22T20:51:04;101345.63;;;11.31;100.00
58975;BME280;44751;52.236;5.178;2022-10-22T20:53:31;101348.81;;;11.34;100.00
58975;BME280;44751;52.236;5.178;2022-10-22T20:55:57;101347.97;;;11.26;100.00
58975;BME280;44751;52.236;5.178;2022-10-22T20:58:36;101347.31;;;11.23;100.00
58975;BME280;44751;52.236;5.178;2022-10-22T21:01:03;101343.25;;;11.28;100.00
58975;BME280;44751;52.236;5.178;2022-10-22T21:03:38;101341.91;;;11.23;100.00
58975;BME280;44751;52.236;5.178;2022-10-22T21:06:08;101333.50;;;11.18;100.00
58975;BME280;44751;52.236;5.178;2022-10-22T21:08:35;101338.91;;;11.18;100.00
58975;BME280;44751;52.236;5.178;2022-10-22T21:11:01;101338.53;;;11.21;100.00
58975;BME280;44751;52.236;5.178;2022-10-22T21:13:31;101336.00;;;11.28;100.00
58975;BME280;44751;52.236;5.178;2022-10-22T21:16:09;101336.69;;;11.22;100.00
58975;BME280;44751;52.236;5.178;2022-10-22T21:18:38;101330.97;;;11.17;100.00
58975;BME280;44751;52.236;5.178;2022-10-22T21:21:06;101343.25;;;11.28;100.00
58975;BME280;44751;52.236;5.178;2022-10-22T21:23:34;101346.44;;;11.31;100.00
58975;BME280;44751;52.236;5.178;2022-10-22T21:26:04;101346.97;;;11.27;100.00
58975;BME280;44751;52.236;5.178;2022-10-22T21:28:34;101355.09;;;11.27;100.00
58975;BME280;44751;52.236;5.178;2022-10-22T21:31:06;101357.13;;;11.16;100.00
58975;BME280;44751;52.236;5.178;2022-10-22T21:33:39;101353.22;;;11.19;100.00
58975;BME280;44751;52.236;5.178;2022-10-22T21:36:06;101350.00;;;11.32;100.00
58975;BME280;44751;52.236;5.178;2022-10-22T21:38:33;101348.66;;;11.28;100.00
58975;BME280;44751;52.236;5.178;2022-10-22T21:41:08;101342.78;;;11.24;100.00
58975;BME280;44751;52.236;5.178;2022-10-22T21:43:40;101341.22;;;11.21;100.00
58975;BME280;44751;52.236;5.178;2022-10-22T21:46:18;101346.81;;;11.20;100.00
58975;BME280;44751;52.236;5.178;2022-10-22T21:48:50;101354.72;;;11.21;100.00
58975;BME280;44751;52.236;5.178;2022-10-22T21:51:24;101362.34;;;11.18;100.00
58975;BME280;44751;52.236;5.178;2022-10-22T21:53:51;101353.91;;;11.21;100.00
58975;BME280;44751;52.236;5.178;2022-10-22T21:56:22;101359.66;;;11.18;100.00
58975;BME280;44751;52.236;5.178;2022-10-22T21:58:51;101361.00;;;11.14;100.00
58975;BME280;44751;52.236;5.178;2022-10-22T22:01:18;101351.38;;;11.11;100.00
58975;BME280;44751;52.236;5.178;2022-10-22T22:03:47;101342.94;;;11.14;100.00
58975;BME280;44751;52.236;5.178;2022-10-22T22:06:14;101339.72;;;11.19;100.00
58975;BME280;44751;52.236;5.178;2022-10-22T22:08:44;101338.88;;;11.27;100.00
58975;BME280;44751;52.236;5.178;2022-10-22T22:11:20;101348.63;;;11.36;100.00
58975;BME280;44751;52.236;5.178;2022-10-22T22:13:50;101340.38;;;11.38;100.00
58975;BME280;44751;52.236;5.178;2022-10-22T22:16:22;101344.59;;;11.32;100.00
58975;BME280;44751;52.236;5.178;2022-10-22T22:19:07;101343.25;;;11.36;100.00
58975;BME280;44751;52.236;5.178;2022-10-22T22:21:38;101339.19;;;11.32;100.00
58975;BME280;44751;52.236;5.178;2022-10-22T22:24:10;101339.34;;;11.39;100.00
58975;BME280;44751;52.236;5.178;2022-10-22T22:26:38;101336.41;;;11.57;100.00
58975;BME280;44751;52.236;5.178;2022-10-22T22:29:04;101338.31;;;11.56;100.00
58975;BME280;44751;52.236;5.178;2022-10-22T22:31:32;101330.19;;;11.56;100.00
58975;BME280;44751;52.236;5.178;2022-10-22T22:34:10;101333.72;;;11.57;100.00
58975;BME280;44751;52.236;5.178;2022-10-22T22:36:42;101333.56;;;11.58;100.00
58975;BME280;44751;52.236;5.178;2022-10-22T22:39:12;101319.38;;;11.56;100.00
58975;BME280;44751;52.236;5.178;2022-10-22T22:41:43;101324.97;;;11.55;100.00
58975;BME280;44751;52.236;5.178;2022-10-22T22:44:10;101324.97;;;11.55;100.00
58975;BME280;44751;52.236;5.178;2022-10-22T22:46:37;101332.41;;;11.44;100.00
58975;BME280;44751;52.236;5.178;2022-10-22T22:49:12;101321.25;;;11.47;100.00
58975;BME280;44751;52.236;5.178;2022-10-22T22:51:43;101318.38;;;11.49;100.00
58975;BME280;44751;52.236;5.178;2022-10-22T22:54:09;101323.44;;;11.44;100.00
58975;BME280;44751;52.236;5.178;2022-10-22T22:56:36;101314.66;;;11.50;100.00
58975;BME280;44751;52.236;5.178;2022-10-22T22:59:12;101312.63;;;11.60;100.00
58975;BME280;44751;52.236;5.178;2022-10-22T23:01:39;101315.50;;;11.59;100.00
58975;BME280;44751;52.236;5.178;2022-10-22T23:04:14;101314.19;;;11.46;100.00
58975;BME280;44751;52.236;5.178;2022-10-22T23:06:45;101311.31;;;11.40;100.00
58975;BME280;44751;52.236;5.178;2022-10-22T23:09:16;101319.78;;;11.36;100.00
58975;BME280;44751;52.236;5.178;2022-10-22T23:11:44;101318.91;;;11.36;100.00
58975;BME280;44751;52.236;5.178;2022-10-22T23:14:12;101311.69;;;11.36;100.00
58975;BME280;44751;52.236;5.178;2022-10-22T23:16:49;101304.22;;;11.39;100.00
58975;BME280;44751;52.236;5.178;2022-10-22T23:19:18;101302.88;;;11.34;100.00
58975;BME280;44751;52.236;5.178;2022-10-22T23:21:53;101302.72;;;11.36;100.00
58975;BME280;44751;52.236;5.178;2022-10-22T23:24:28;101300.91;;;11.20;100.00
58975;BME280;44751;52.236;5.178;2022-10-22T23:26:55;101300.53;;;11.23;100.00
58975;BME280;44751;52.236;5.178;2022-10-22T23:29:27;101298.56;;;11.17;100.00
58975;BME280;44751;52.236;5.178;2022-10-22T23:31:58;101290.97;;;11.12;100.00
58975;BME280;44751;52.236;5.178;2022-10-22T23:34:27;101294.66;;;11.19;100.00
58975;BME280;44751;52.236;5.178;2022-10-22T23:36:55;101300.06;;;11.19;100.00
58975;BME280;44751;52.236;5.178;2022-10-22T23:39:24;101304.47;;;11.04;100.00
58975;BME280;44751;52.236;5.178;2022-10-22T23:41:54;101297.41;;;11.03;100.00
58975;BME280;44751;52.236;5.178;2022-10-22T23:44:21;101297.03;;;10.97;100.00
58975;BME280;44751;52.236;5.178;2022-10-22T23:46:48;101293.19;;;10.92;100.00
58975;BME280;44751;52.236;5.178;2022-10-22T23:49:15;101287.25;;;11.05;100.00
58975;BME280;44751;52.236;5.178;2022-10-22T23:51:41;101280.50;;;11.01;100.00
58975;BME280;44751;52.236;5.178;2022-10-22T23:54:13;101275.44;;;10.97;100.00
58975;BME280;44751;52.236;5.178;2022-10-22T23:56:40;101272.25;;;10.94;100.00
58975;BME280;44751;52.236;5.178;2022-10-22T23:59:07;101272.09;;;10.95;100.00
